Time,TemperatureF,DewpointF,PressureIn,WindDirection,WindDirectionDegrees,WindSpeedMPH,WindSpeedGustMPH,Humidity,HourlyPrecipIn,Conditions,Clouds,dailyrainin,SoftwareType,DateUTC
2013-04-18 00:01:00,68.6,67.4,30.10,WSW,250,0.0,0.0,96,0.00,,,0.00,WUHU216DAVISVP2,2013-04-18 04:01:00,
2013-04-18 00:02:00,68.6,67.4,30.10,WSW,250,0.0,0.0,96,0.00,,,0.00,WUHU216DAVISVP2,2013-04-18 04:02:00,
2013-04-18 00:07:00,68.6,67.4,30.10,WSW,250,0.0,0.0,96,0.00,,,0.00,WUHU216DAVISVP2,2013-04-18 04:07:00,
2013-04-18 00:12:00,68.5,67.3,30.10,WSW,250,0.0,0.0,96,0.00,,,0.00,WUHU216DAVISVP2,2013-04-18 04:12:00,
2013-04-18 00:17:00,68.4,67.2,30.10,WSW,250,0.0,0.0,96,0.00,,,0.00,WUHU216DAVISVP2,2013-04-18 04:17:00,
2013-04-18 00:22:00,68.4,67.2,30.10,WSW,250,0.0,0.0,96,0.00,,,0.00,WUHU216DAVISVP2,2013-04-18 04:22:00,
2013-04-18 00:27:00,68.3,67.1,30.10,WSW,250,0.0,0.0,96,0.00,,,0.00,WUHU216DAVISVP2,2013-04-18 04:27:00,
2013-04-18 00:32:00,68.2,67.0,30.10,WSW,250,0.0,0.0,96,0.00,,,0.00,WUHU216DAVISVP2,2013-04-18 04:32:00,
2013-04-18 00:37:00,68.1,66.9,30.10,WSW,250,0.0,0.0,96,0.00,,,0.00,WUHU216DAVISVP2,2013-04-18 04:37:00,
2013-04-18 00:42:00,68.0,66.8,30.10,WSW,250,0.0,0.0,96,0.00,,,0.00,WUHU216DAVISVP2,2013-04-18 04:42:00,
2013-04-18 00:47:00,67.9,66.7,30.10,WSW,250,0.0,0.0,96,0.00,,,0.00,WUHU216DAVISVP2,2013-04-18 04:47:00,
2013-04-18 00:52:00,67.9,66.7,30.10,WSW,250,0.0,0.0,96,0.00,,,0.00,WUHU216DAVISVP2,2013-04-18 04:52:00,
2013-04-18 00:57:00,67.8,66.6,30.10,WSW,250,0.0,0.0,96,0.00,,,0.00,WUHU216DAVISVP2,2013-04-18 04:57:00,
2013-04-18 01:02:00,67.9,67.0,30.09,WSW,250,0.0,0.0,97,0.00,,,0.00,WUHU216DAVISVP2,2013-04-18 05:02:00,
2013-04-18 01:07:00,67.8,66.9,30.09,WSW,250,0.0,0.0,97,0.00,,,0.00,WUHU216DAVISVP2,2013-04-18 05:07:00,
2013-04-18 01:12:00,67.8,66.9,30.09,WSW,250,0.0,0.0,97,0.00,,,0.00,WUHU216DAVISVP2,2013-04-18 05:12:00,
2013-04-18 01:17:00,67.8,66.9,30.09,WSW,250,0.0,0.0,97,0.00,,,0.00,WUHU216DAVISVP2,2013-04-18 05:17:00,
2013-04-18 01:22:00,67.7,66.8,30.09,WSW,250,0.0,0.0,97,0.00,,,0.00,WUHU216DAVISVP2,2013-04-18 05:22:00,
2013-04-18 01:27:00,67.8,66.9,30.08,WSW,250,0.0,0.0,97,0.00,,,0.00,WUHU216DAVISVP2,2013-04-18 05:27:00,
2013-04-18 01:32:00,67.7,66.8,30.08,WSW,250,0.0,0.0,97,0.00,,,0.00,WUHU216DAVISVP2,2013-04-18 05:32:00,
2013-04-18 01:37:00,67.8,66.9,30.08,WSW,250,0.0,0.0,97,0.00,,,0.00,WUHU216DAVISVP2,2013-04-18 05:37:00,
2013-04-18 01:42:00,67.9,67.0,30.07,WSW,250,0.0,0.0,97,0.00,,,0.00,WUHU216DAVISVP2,2013-04-18 05:42:00,
2013-04-18 01:47:00,68.0,67.1,30.07,WSW,250,0.0,0.0,97,0.00,,,0.00,WUHU216DAVISVP2,2013-04-18 05:47:00,
2013-04-18 01:52:00,68.1,67.2,30.07,WSW,250,0.0,0.0,97,0.00,,,0.00,WUHU216DAVISVP2,2013-04-18 05:52:00,
2013-04-18 01:57:00,68.1,67.2,30.07,WSW,250,0.0,0.0,97,0.00,,,0.00,WUHU216DAVISVP2,2013-04-18 05:57:00,
2013-04-18 02:02:00,68.1,67.2,30.06,WSW,250,0.0,0.0,97,0.00,,,0.00,WUHU216DAVISVP2,2013-04-18 06:02:00,
2013-04-18 02:07:00,68.1,67.2,30.06,WSW,250,0.0,0.0,97,0.00,,,0.00,WUHU216DAVISVP2,2013-04-18 06:07:00,
2013-04-18 02:12:00,68.1,67.2,30.06,WSW,250,0.0,0.0,97,0.00,,,0.00,WUHU216DAVISVP2,2013-04-18 06:12:00,
2013-04-18 02:17:00,68.0,67.1,30.06,WSW,250,0.0,0.0,97,0.00,,,0.00,WUHU216DAVISVP2,2013-04-18 06:17:00,
2013-04-18 02:22:00,68.0,67.1,30.06,WSW,250,0.0,0.0,97,0.00,,,0.00,WUHU216DAVISVP2,2013-04-18 06:22:00,
2013-04-18 02:27:00,67.9,67.0,30.05,WSW,250,0.0,0.0,97,0.00,,,0.00,WUHU216DAVISVP2,2013-04-18 06:27:00,
2013-04-18 02:32:00,67.8,66.9,30.05,WSW,250,0.0,0.0,97,0.00,,,0.00,WUHU216DAVISVP2,2013-04-18 06:32:00,
2013-04-18 02:37:00,67.7,66.8,30.05,WSW,250,0.0,0.0,97,0.00,,,0.00,WUHU216DAVISVP2,2013-04-18 06:37:00,
2013-04-18 02:42:00,67.7,66.8,30.05,WSW,250,0.0,0.0,97,0.00,,,0.00,WUHU216DAVISVP2,2013-04-18 06:42:00,
2013-04-18 02:47:00,67.7,66.8,30.04,WSW,250,0.0,0.0,97,0.00,,,0.00,WUHU216DAVISVP2,2013-04-18 06:47:00,
2013-04-18 02:52:00,67.7,66.8,30.04,WSW,250,0.0,0.0,97,0.00,,,0.00,WUHU216DAVISVP2,2013-04-18 06:52:00,
2013-04-18 02:57:00,67.6,66.7,30.04,WSW,250,0.0,0.0,97,0.00,,,0.00,WUHU216DAVISVP2,2013-04-18 06:57:00,
2013-04-18 03:02:00,67.6,66.7,30.04,WSW,250,0.0,0.0,97,0.00,,,0.00,WUHU216DAVISVP2,2013-04-18 07:02:00,
2013-04-18 03:07:00,67.6,66.7,30.04,WSW,250,0.0,0.0,97,0.00,,,0.00,WUHU216DAVISVP2,2013-04-18 07:07:00,
2013-04-18 03:12:00,67.6,66.7,30.04,WSW,250,0.0,0.0,97,0.00,,,0.00,WUHU216DAVISVP2,2013-04-18 07:12:00,
2013-04-18 03:17:00,67.6,67.0,30.04,WSW,250,0.0,0.0,98,0.00,,,0.00,WUHU216DAVISVP2,2013-04-18 07:17:00,
2013-04-18 03:22:00,67.6,67.0,30.04,WSW,250,0.0,0.0,98,0.00,,,0.00,WUHU216DAVISVP2,2013-04-18 07:22:00,
2013-04-18 03:27:00,67.6,67.0,30.04,WSW,250,0.0,0.0,98,0.00,,,0.00,WUHU216DAVISVP2,2013-04-18 07:27:00,
2013-04-18 03:32:00,67.6,67.0,30.04,WSW,250,0.0,0.0,98,0.00,,,0.00,WUHU216DAVISVP2,2013-04-18 07:32:00,
2013-04-18 03:37:00,67.7,67.1,30.04,WSW,250,0.0,0.0,98,0.00,,,0.00,WUHU216DAVISVP2,2013-04-18 07:37:00,
2013-04-18 03:42:00,67.7,67.1,30.04,WSW,250,0.0,0.0,98,0.00,,,0.00,WUHU216DAVISVP2,2013-04-18 07:42:00,
2013-04-18 03:47:00,67.8,67.2,30.04,WSW,250,0.0,0.0,98,0.00,,,0.00,WUHU216DAVISVP2,2013-04-18 07:47:00,
2013-04-18 03:52:00,67.7,67.1,30.04,WSW,250,0.0,0.0,98,0.00,,,0.00,WUHU216DAVISVP2,2013-04-18 07:52:00,
2013-04-18 03:57:00,67.7,67.1,30.04,WSW,250,0.0,0.0,98,0.00,,,0.00,WUHU216DAVISVP2,2013-04-18 07:57:00,
2013-04-18 04:02:00,67.6,66.7,30.04,WSW,250,0.0,0.0,97,0.00,,,0.00,WUHU216DAVISVP2,2013-04-18 08:02:00,
2013-04-18 04:07:00,67.5,66.6,30.04,WSW,250,0.0,0.0,97,0.00,,,0.00,WUHU216DAVISVP2,2013-04-18 08:07:00,
2013-04-18 04:12:00,67.5,66.9,30.04,WSW,250,0.0,0.0,98,0.00,,,0.00,WUHU216DAVISVP2,2013-04-18 08:12:00,
2013-04-18 04:17:00,67.4,66.8,30.04,WSW,250,0.0,0.0,98,0.00,,,0.00,WUHU216DAVISVP2,2013-04-18 08:17:00,
2013-04-18 04:22:00,67.3,66.7,30.04,WSW,250,0.0,0.0,98,0.00,,,0.00,WUHU216DAVISVP2,2013-04-18 08:22:00,
2013-04-18 04:27:00,67.2,66.6,30.04,WSW,250,0.0,0.0,98,0.00,,,0.00,WUHU216DAVISVP2,2013-04-18 08:27:00,
2013-04-18 04:32:00,67.1,66.5,30.04,WSW,250,0.0,0.0,98,0.00,,,0.00,WUHU216DAVISVP2,2013-04-18 08:32:00,
2013-04-18 04:37:00,67.0,66.4,30.04,WSW,250,0.0,0.0,98,0.00,,,0.00,WUHU216DAVISVP2,2013-04-18 08:37:00,
2013-04-18 04:42:00,66.9,66.3,30.04,WSW,250,0.0,0.0,98,0.00,,,0.00,WUHU216DAVISVP2,2013-04-18 08:42:00,
2013-04-18 04:47:00,66.8,66.2,30.04,WSW,250,0.0,0.0,98,0.00,,,0.00,WUHU216DAVISVP2,2013-04-18 08:47:00,
2013-04-18 04:52:00,66.7,66.1,30.04,WSW,250,0.0,0.0,98,0.00,,,0.00,WUHU216DAVISVP2,2013-04-18 08:52:00,
2013-04-18 04:57:00,66.5,65.9,30.03,WSW,250,0.0,0.0,98,0.00,,,0.00,WUHU216DAVISVP2,2013-04-18 08:57:00,
2013-04-18 05:02:00,66.4,65.5,30.04,WSW,250,0.0,0.0,97,0.00,,,0.00,WUHU216DAVISVP2,2013-04-18 09:02:00,
2013-04-18 05:07:00,66.3,65.4,30.04,WSW,250,0.0,0.0,97,0.00,,,0.00,WUHU216DAVISVP2,2013-04-18 09:07:00,
2013-04-18 05:12:00,66.2,65.3,30.04,WSW,250,0.0,0.0,97,0.00,,,0.00,WUHU216DAVISVP2,2013-04-18 09:12:00,
2013-04-18 05:17:00,66.1,65.5,30.04,WSW,250,0.0,0.0,98,0.00,,,0.00,WUHU216DAVISVP2,2013-04-18 09:17:00,
2013-04-18 05:22:00,66.0,65.4,30.04,WSW,250,0.0,0.0,98,0.00,,,0.00,WUHU216DAVISVP2,2013-04-18 09:22:00,
2013-04-18 05:27:00,65.9,65.3,30.04,WSW,250,0.0,0.0,98,0.00,,,0.00,WUHU216DAVISVP2,2013-04-18 09:27:00,
2013-04-18 05:32:00,65.9,65.3,30.04,WSW,250,0.0,0.0,98,0.00,,,0.00,WUHU216DAVISVP2,2013-04-18 09:32:00,
2013-04-18 05:37:00,65.8,65.2,30.04,WSW,250,0.0,0.0,98,0.00,,,0.00,WUHU216DAVISVP2,2013-04-18 09:37:00,
2013-04-18 05:42:00,65.6,65.0,30.03,WSW,250,0.0,0.0,98,0.00,,,0.00,WUHU216DAVISVP2,2013-04-18 09:42:00,
2013-04-18 05:47:00,65.5,64.9,30.03,WSW,250,0.0,0.0,98,0.00,,,0.00,WUHU216DAVISVP2,2013-04-18 09:47:00,
2013-04-18 05:52:00,65.4,64.8,30.04,WSW,250,0.0,0.0,98,0.00,,,0.00,WUHU216DAVISVP2,2013-04-18 09:52:00,
2013-04-18 05:57:00,65.3,64.7,30.04,WSW,250,0.0,0.0,98,0.00,,,0.00,WUHU216DAVISVP2,2013-04-18 09:57:00,
2013-04-18 06:02:00,65.2,64.6,30.04,WSW,250,0.0,0.0,98,0.00,,,0.00,WUHU216DAVISVP2,2013-04-18 10:02:00,
2013-04-18 06:07:00,65.2,64.6,30.04,WSW,250,0.0,0.0,98,0.00,,,0.00,WUHU216DAVISVP2,2013-04-18 10:07:00,
2013-04-18 06:12:00,65.3,64.7,30.04,WSW,250,0.0,0.0,98,0.00,,,0.00,WUHU216DAVISVP2,2013-04-18 10:12:00,
2013-04-18 06:17:00,65.4,64.8,30.05,WSW,250,0.0,0.0,98,0.00,,,0.00,WUHU216DAVISVP2,2013-04-18 10:17:00,
2013-04-18 06:22:00,65.4,64.8,30.05,WSW,250,0.0,0.0,98,0.00,,,0.00,WUHU216DAVISVP2,2013-04-18 10:22:00,
2013-04-18 06:27:00,65.5,64.9,30.05,WSW,250,0.0,0.0,98,0.00,,,0.00,WUHU216DAVISVP2,2013-04-18 10:27:00,
2013-04-18 06:32:00,65.5,64.9,30.05,WSW,250,0.0,0.0,98,0.00,,,0.00,WUHU216DAVISVP2,2013-04-18 10:32:00,
2013-04-18 06:37:00,65.6,65.0,30.05,WSW,250,0.0,0.0,98,0.00,,,0.00,WUHU216DAVISVP2,2013-04-18 10:37:00,
2013-04-18 06:42:00,65.5,64.9,30.05,WSW,250,0.0,0.0,98,0.00,,,0.00,WUHU216DAVISVP2,2013-04-18 10:42:00,
2013-04-18 06:47:00,65.6,65.0,30.05,WSW,250,0.0,0.0,98,0.00,,,0.00,WUHU216DAVISVP2,2013-04-18 10:47:00,
2013-04-18 06:52:00,65.6,65.0,30.05,WSW,250,0.0,0.0,98,0.00,,,0.00,WUHU216DAVISVP2,2013-04-18 10:52:00,
2013-04-18 06:57:00,65.6,65.0,30.06,WSW,250,0.0,0.0,98,0.00,,,0.00,WUHU216DAVISVP2,2013-04-18 10:57:00,
2013-04-18 07:02:00,65.5,64.9,30.05,WSW,250,0.0,0.0,98,0.00,,,0.00,WUHU216DAVISVP2,2013-04-18 11:02:00,
2013-04-18 07:07:00,65.5,64.9,30.06,WSW,250,0.0,0.0,98,0.00,,,0.00,WUHU216DAVISVP2,2013-04-18 11:07:00,
2013-04-18 07:12:00,65.4,64.8,30.06,WSW,250,0.0,0.0,98,0.00,,,0.00,WUHU216DAVISVP2,2013-04-18 11:12:00,
2013-04-18 07:17:00,65.4,64.8,30.06,WSW,250,0.0,0.0,98,0.00,,,0.00,WUHU216DAVISVP2,2013-04-18 11:17:00,
2013-04-18 07:22:00,65.4,64.8,30.06,WSW,250,0.0,0.0,98,0.00,,,0.00,WUHU216DAVISVP2,2013-04-18 11:22:00,
2013-04-18 07:27:00,65.4,64.8,30.06,WSW,250,0.0,0.0,98,0.00,,,0.00,WUHU216DAVISVP2,2013-04-18 11:27:00,
2013-04-18 07:32:00,65.4,64.8,30.06,WSW,250,0.0,0.0,98,0.00,,,0.00,WUHU216DAVISVP2,2013-04-18 11:32:00,
2013-04-18 07:37:00,65.6,65.3,30.07,WSW,250,0.0,0.0,99,0.00,,,0.00,WUHU216DAVISVP2,2013-04-18 11:37:00,
2013-04-18 07:42:00,65.6,65.3,30.07,WSW,250,0.0,0.0,99,0.00,,,0.00,WUHU216DAVISVP2,2013-04-18 11:42:00,
2013-04-18 07:47:00,65.7,65.4,30.07,WSW,250,0.0,0.0,99,0.00,,,0.00,WUHU216DAVISVP2,2013-04-18 11:47:00,
2013-04-18 07:52:00,65.9,65.6,30.07,WSW,250,0.0,0.0,99,0.00,,,0.00,WUHU216DAVISVP2,2013-04-18 11:52:00,
2013-04-18 07:57:00,66.2,65.9,30.07,WSW,250,0.0,0.0,99,0.00,,,0.00,WUHU216DAVISVP2,2013-04-18 11:57:00,
2013-04-18 08:02:00,66.4,66.1,30.07,WSW,250,0.0,0.0,99,0.00,,,0.00,WUHU216DAVISVP2,2013-04-18 12:02:00,
2013-04-18 08:07:00,66.5,66.2,30.07,WSW,250,0.0,0.0,99,0.00,,,0.00,WUHU216DAVISVP2,2013-04-18 12:07:00,
2013-04-18 08:12:00,66.7,66.4,30.07,WSW,250,0.0,0.0,99,0.00,,,0.00,WUHU216DAVISVP2,2013-04-18 12:12:00,
2013-04-18 08:17:00,66.9,66.6,30.07,WSW,250,0.0,0.0,99,0.00,,,0.00,WUHU216DAVISVP2,2013-04-18 12:17:00,
2013-04-18 08:22:00,67.3,67.0,30.07,WSW,250,0.0,0.0,99,0.00,,,0.00,WUHU216DAVISVP2,2013-04-18 12:22:00,
2013-04-18 08:27:00,67.6,67.6,30.07,WSW,250,0.0,0.0,100,0.00,,,0.00,WUHU216DAVISVP2,2013-04-18 12:27:00,
2013-04-18 08:32:00,67.9,67.6,30.07,WSW,250,0.0,0.0,99,0.00,,,0.00,WUHU216DAVISVP2,2013-04-18 12:32:00,
2013-04-18 08:37:00,68.1,68.1,30.08,WSW,250,0.0,0.0,100,0.00,,,0.00,WUHU216DAVISVP2,2013-04-18 12:37:00,
2013-04-18 08:42:00,68.4,68.4,30.07,WSW,250,0.0,0.0,100,0.00,,,0.00,WUHU216DAVISVP2,2013-04-18 12:42:00,
2013-04-18 08:47:00,68.9,68.9,30.08,WSW,250,0.0,0.0,100,0.00,,,0.00,WUHU216DAVISVP2,2013-04-18 12:47:00,
2013-04-18 08:52:00,69.3,69.3,30.08,WSW,250,0.0,0.0,100,0.00,,,0.00,WUHU216DAVISVP2,2013-04-18 12:52:00,
2013-04-18 08:57:00,69.6,69.6,30.08,WSW,250,0.0,0.0,100,0.00,,,0.00,WUHU216DAVISVP2,2013-04-18 12:57:00,
2013-04-18 09:02:00,69.8,69.8,30.08,WSW,250,0.0,1.0,100,0.00,,,0.00,WUHU216DAVISVP2,2013-04-18 13:02:00,
2013-04-18 09:07:00,70.1,70.1,30.07,WSW,250,0.0,1.0,100,0.00,,,0.00,WUHU216DAVISVP2,2013-04-18 13:07:00,
2013-04-18 09:12:00,70.3,70.0,30.07,WSW,250,0.0,0.0,99,0.00,,,0.00,WUHU216DAVISVP2,2013-04-18 13:12:00,
2013-04-18 09:17:00,70.4,70.1,30.07,West,261,0.0,2.0,99,0.00,,,0.00,WUHU216DAVISVP2,2013-04-18 13:17:00,
2013-04-18 09:22:00,70.8,70.5,30.07,West,261,0.0,2.0,99,0.00,,,0.00,WUHU216DAVISVP2,2013-04-18 13:22:00,
2013-04-18 09:27:00,71.0,70.4,30.07,West,261,0.0,1.0,98,0.00,,,0.00,WUHU216DAVISVP2,2013-04-18 13:27:00,
2013-04-18 09:32:00,71.3,70.4,30.07,West,261,0.0,1.0,97,0.00,,,0.00,WUHU216DAVISVP2,2013-04-18 13:32:00,
2013-04-18 09:37:00,71.6,70.4,30.08,West,261,0.0,0.0,96,0.00,,,0.00,WUHU216DAVISVP2,2013-04-18 13:37:00,
2013-04-18 09:42:00,71.9,70.7,30.08,West,261,0.0,0.0,96,0.00,,,0.00,WUHU216DAVISVP2,2013-04-18 13:42:00,
2013-04-18 09:47:00,72.2,70.7,30.08,NW,308,0.0,2.0,95,0.00,,,0.00,WUHU216DAVISVP2,2013-04-18 13:47:00,
2013-04-18 09:52:00,72.5,70.6,30.08,NW,308,0.0,2.0,94,0.00,,,0.00,WUHU216DAVISVP2,2013-04-18 13:52:00,
2013-04-18 09:57:00,72.7,70.5,30.08,NW,308,0.0,1.0,93,0.00,,,0.00,WUHU216DAVISVP2,2013-04-18 13:57:00,
2013-04-18 10:02:00,73.0,70.5,30.08,NW,308,0.0,0.0,92,0.00,,,0.00,WUHU216DAVISVP2,2013-04-18 14:02:00,
2013-04-18 10:07:00,73.3,70.5,30.08,NW,308,0.0,0.0,91,0.00,,,0.00,WUHU216DAVISVP2,2013-04-18 14:07:00,
2013-04-18 10:12:00,73.7,70.9,30.09,NW,308,0.0,1.0,91,0.00,,,0.00,WUHU216DAVISVP2,2013-04-18 14:12:00,
2013-04-18 10:17:00,74.1,71.0,30.09,NW,308,0.0,1.0,90,0.00,,,0.00,WUHU216DAVISVP2,2013-04-18 14:17:00,
2013-04-18 10:22:00,74.5,71.0,30.09,NW,308,2.0,3.0,89,0.00,,,0.00,WUHU216DAVISVP2,2013-04-18 14:22:00,
2013-04-18 10:27:00,75.0,71.2,30.09,NNW,348,0.0,3.0,88,0.00,,,0.00,WUHU216DAVISVP2,2013-04-18 14:27:00,
2013-04-18 10:32:00,75.4,71.3,30.08,NW,310,0.0,2.0,87,0.00,,,0.00,WUHU216DAVISVP2,2013-04-18 14:32:00,
2013-04-18 10:37:00,75.8,71.3,30.08,NNE,28,0.0,1.0,86,0.00,,,0.00,WUHU216DAVISVP2,2013-04-18 14:37:00,
2013-04-18 10:42:00,76.1,71.3,30.09,NNE,28,0.0,1.0,85,0.00,,,0.00,WUHU216DAVISVP2,2013-04-18 14:42:00,
2013-04-18 10:47:00,76.2,71.1,30.08,NE,38,0.0,1.0,84,0.00,,,0.00,WUHU216DAVISVP2,2013-04-18 14:47:00,
2013-04-18 10:52:00,76.2,71.1,30.08,ENE,69,0.0,3.0,84,0.00,,,0.00,WUHU216DAVISVP2,2013-04-18 14:52:00,
2013-04-18 10:57:00,76.4,71.6,30.09,ENE,69,0.0,3.0,85,0.00,,,0.00,WUHU216DAVISVP2,2013-04-18 14:57:00,
2013-04-18 11:02:00,76.8,71.7,30.09,ENE,76,0.0,1.0,84,0.00,,,0.00,WUHU216DAVISVP2,2013-04-18 15:02:00,
2013-04-18 11:07:00,77.2,71.7,30.09,West,268,0.0,1.0,83,0.00,,,0.00,WUHU216DAVISVP2,2013-04-18 15:07:00,
2013-04-18 11:12:00,77.6,72.1,30.08,East,80,0.0,1.0,83,0.00,,,0.00,WUHU216DAVISVP2,2013-04-18 15:12:00,
2013-04-18 11:17:00,78.0,72.1,30.08,East,80,0.0,1.0,82,0.00,,,0.00,WUHU216DAVISVP2,2013-04-18 15:17:00,
2013-04-18 11:22:00,78.5,72.3,30.08,WSW,248,0.0,3.0,81,0.00,,,0.00,WUHU216DAVISVP2,2013-04-18 15:22:00,
2013-04-18 11:27:00,78.8,72.6,30.08,SE,138,1.0,3.0,81,0.00,,,0.00,WUHU216DAVISVP2,2013-04-18 15:27:00,
2013-04-18 11:32:00,79.1,72.5,30.08,ENE,57,0.0,2.0,80,0.00,,,0.00,WUHU216DAVISVP2,2013-04-18 15:32:00,
2013-04-18 11:37:00,79.0,72.4,30.08,ENE,57,0.0,2.0,80,0.00,,,0.00,WUHU216DAVISVP2,2013-04-18 15:37:00,
2013-04-18 11:42:00,79.1,72.2,30.08,NE,51,0.0,3.0,79,0.00,,,0.00,WUHU216DAVISVP2,2013-04-18 15:42:00,
2013-04-18 11:47:00,79.5,72.9,30.08,NE,46,0.0,3.0,80,0.00,,,0.00,WUHU216DAVISVP2,2013-04-18 15:47:00,
2013-04-18 11:52:00,80.0,73.0,30.07,NNE,14,0.0,2.0,79,0.00,,,0.00,WUHU216DAVISVP2,2013-04-18 15:52:00,
2013-04-18 11:57:00,80.3,72.6,30.07,SE,144,0.0,3.0,77,0.00,,,0.00,WUHU216DAVISVP2,2013-04-18 15:57:00,
2013-04-18 12:02:00,80.5,73.1,30.07,SSE,165,0.0,3.0,78,0.00,,,0.00,WUHU216DAVISVP2,2013-04-18 16:02:00,
2013-04-18 12:07:00,80.9,73.2,30.07,NE,39,0.0,4.0,77,0.00,,,0.00,WUHU216DAVISVP2,2013-04-18 16:07:00,
2013-04-18 12:12:00,81.3,73.2,30.07,NNE,31,0.0,4.0,76,0.00,,,0.00,WUHU216DAVISVP2,2013-04-18 16:12:00,
2013-04-18 12:17:00,81.4,73.7,30.07,West,271,0.0,5.0,77,0.00,,,0.00,WUHU216DAVISVP2,2013-04-18 16:17:00,
2013-04-18 12:22:00,81.5,73.4,30.07,SSE,148,1.0,5.0,76,0.00,,,0.00,WUHU216DAVISVP2,2013-04-18 16:22:00,
2013-04-18 12:27:00,81.4,73.3,30.07,NNE,21,0.0,3.0,76,0.00,,,0.00,WUHU216DAVISVP2,2013-04-18 16:27:00,
2013-04-18 12:32:00,81.4,73.7,30.07,NNE,19,0.0,1.0,77,0.00,,,0.00,WUHU216DAVISVP2,2013-04-18 16:32:00,
2013-04-18 12:37:00,81.9,73.8,30.06,NW,321,0.0,1.0,76,0.00,,,0.00,WUHU216DAVISVP2,2013-04-18 16:37:00,
2013-04-18 12:42:00,81.7,73.2,30.06,NE,51,0.0,3.0,75,0.00,,,0.00,WUHU216DAVISVP2,2013-04-18 16:42:00,
2013-04-18 12:47:00,81.7,72.8,30.06,SSW,207,2.0,3.0,74,0.00,,,0.00,WUHU216DAVISVP2,2013-04-18 16:47:00,
2013-04-18 12:52:00,81.3,72.8,30.06,ENE,58,1.0,3.0,75,0.00,,,0.00,WUHU216DAVISVP2,2013-04-18 16:52:00,
2013-04-18 12:57:00,81.0,73.3,30.06,ENE,74,0.0,3.0,77,0.00,,,0.00,WUHU216DAVISVP2,2013-04-18 16:57:00,
2013-04-18 13:02:00,81.2,73.1,30.06,WSW,258,0.0,3.0,76,0.00,,,0.00,WUHU216DAVISVP2,2013-04-18 17:02:00,
2013-04-18 13:07:00,81.4,73.3,30.06,WSW,240,0.0,3.0,76,0.00,,,0.00,WUHU216DAVISVP2,2013-04-18 17:07:00,
2013-04-18 13:12:00,81.8,73.7,30.06,NE,52,0.0,3.0,76,0.00,,,0.00,WUHU216DAVISVP2,2013-04-18 17:12:00,
2013-04-18 13:17:00,82.1,73.6,30.05,NNE,32,3.0,3.0,75,0.00,,,0.00,WUHU216DAVISVP2,2013-04-18 17:17:00,
2013-04-18 13:22:00,82.1,73.2,30.05,NE,51,2.0,3.0,74,0.00,,,0.00,WUHU216DAVISVP2,2013-04-18 17:22:00,
2013-04-18 13:27:00,81.1,72.6,30.05,ESE,115,0.0,3.0,75,0.00,,,0.00,WUHU216DAVISVP2,2013-04-18 17:27:00,
2013-04-18 13:32:00,80.8,72.7,30.05,ENE,58,1.0,4.0,76,0.00,,,0.00,WUHU216DAVISVP2,2013-04-18 17:32:00,
2013-04-18 13:37:00,80.6,72.1,30.05,NE,54,0.0,4.0,75,0.00,,,0.00,WUHU216DAVISVP2,2013-04-18 17:37:00,
2013-04-18 13:42:00,80.9,72.8,30.05,NE,53,0.0,3.0,76,0.00,,,0.00,WUHU216DAVISVP2,2013-04-18 17:42:00,
2013-04-18 13:47:00,81.3,72.8,30.05,North,5,0.0,3.0,75,0.00,,,0.00,WUHU216DAVISVP2,2013-04-18 17:47:00,
2013-04-18 13:52:00,81.6,73.1,30.05,ENE,75,0.0,4.0,75,0.00,,,0.00,WUHU216DAVISVP2,2013-04-18 17:52:00,
2013-04-18 13:57:00,81.0,71.7,30.05,ENE,74,0.0,5.0,73,0.00,,,0.00,WUHU216DAVISVP2,2013-04-18 17:57:00,
2013-04-18 14:02:00,80.8,72.7,30.05,East,85,0.0,5.0,76,0.00,,,0.00,WUHU216DAVISVP2,2013-04-18 18:02:00,
2013-04-18 14:07:00,81.5,73.0,30.05,East,80,1.0,2.0,75,0.00,,,0.00,WUHU216DAVISVP2,2013-04-18 18:07:00,
2013-04-18 14:12:00,81.7,72.8,30.05,ENE,75,1.0,3.0,74,0.00,,,0.00,WUHU216DAVISVP2,2013-04-18 18:12:00,
2013-04-18 14:17:00,80.9,72.4,30.04,NE,49,1.0,4.0,75,0.00,,,0.00,WUHU216DAVISVP2,2013-04-18 18:17:00,
2013-04-18 14:22:00,80.5,72.4,30.05,NE,37,1.0,4.0,76,0.00,,,0.00,WUHU216DAVISVP2,2013-04-18 18:22:00,
2013-04-18 14:27:00,80.9,72.8,30.04,NE,45,0.0,3.0,76,0.00,,,0.00,WUHU216DAVISVP2,2013-04-18 18:27:00,
2013-04-18 14:32:00,81.3,72.0,30.04,ENE,65,1.0,5.0,73,0.00,,,0.00,WUHU216DAVISVP2,2013-04-18 18:32:00,
2013-04-18 14:37:00,80.6,71.7,30.04,ENE,67,0.0,5.0,74,0.00,,,0.00,WUHU216DAVISVP2,2013-04-18 18:37:00,
2013-04-18 14:42:00,80.2,71.7,30.05,ENE,58,0.0,5.0,75,0.00,,,0.00,WUHU216DAVISVP2,2013-04-18 18:42:00,
2013-04-18 14:47:00,80.3,71.8,30.04,ENE,65,2.0,4.0,75,0.00,,,0.00,WUHU216DAVISVP2,2013-04-18 18:47:00,
2013-04-18 14:52:00,80.3,71.8,30.04,East,86,2.0,4.0,75,0.00,,,0.00,WUHU216DAVISVP2,2013-04-18 18:52:00,
2013-04-18 14:57:00,80.1,71.3,30.03,ENE,63,0.0,5.0,74,0.00,,,0.00,WUHU216DAVISVP2,2013-04-18 18:57:00,
2013-04-18 15:02:00,79.8,71.3,30.03,NE,50,0.0,5.0,75,0.00,,,0.00,WUHU216DAVISVP2,2013-04-18 19:02:00,
2013-04-18 15:07:00,79.7,71.2,30.03,ENE,58,1.0,4.0,75,0.00,,,0.00,WUHU216DAVISVP2,2013-04-18 19:07:00,
2013-04-18 15:12:00,79.1,70.7,30.03,NE,48,1.0,4.0,75,0.00,,,0.00,WUHU216DAVISVP2,2013-04-18 19:12:00,
2013-04-18 15:17:00,79.2,71.1,30.03,NNE,26,1.0,4.0,76,0.00,,,0.00,WUHU216DAVISVP2,2013-04-18 19:17:00,
2013-04-18 15:22:00,79.3,70.9,30.02,NE,40,2.0,4.0,75,0.00,,,0.00,WUHU216DAVISVP2,2013-04-18 19:22:00,
2013-04-18 15:27:00,79.2,70.8,30.02,ENE,59,4.0,5.0,75,0.00,,,0.00,WUHU216DAVISVP2,2013-04-18 19:27:00,
2013-04-18 15:32:00,78.9,70.9,30.02,NE,40,0.0,6.0,76,0.00,,,0.00,WUHU216DAVISVP2,2013-04-18 19:32:00,
2013-04-18 15:37:00,79.1,71.0,30.02,East,88,3.0,6.0,76,0.00,,,0.00,WUHU216DAVISVP2,2013-04-18 19:37:00,
2013-04-18 15:42:00,78.9,70.5,30.02,East,86,0.0,4.0,75,0.00,,,0.00,WUHU216DAVISVP2,2013-04-18 19:42:00,
2013-04-18 15:47:00,78.9,71.2,30.02,ENE,76,1.0,4.0,77,0.00,,,0.00,WUHU216DAVISVP2,2013-04-18 19:47:00,
2013-04-18 15:52:00,78.8,70.8,30.02,ENE,76,0.0,4.0,76,0.00,,,0.00,WUHU216DAVISVP2,2013-04-18 19:52:00,
2013-04-18 15:57:00,78.9,71.6,30.01,ENE,69,1.0,4.0,78,0.00,,,0.00,WUHU216DAVISVP2,2013-04-18 19:57:00,
2013-04-18 16:02:00,79.3,72.0,30.01,NE,53,1.0,3.0,78,0.00,,,0.00,WUHU216DAVISVP2,2013-04-18 20:02:00,
2013-04-18 16:07:00,79.6,71.9,30.01,East,88,0.0,3.0,77,0.00,,,0.00,WUHU216DAVISVP2,2013-04-18 20:07:00,
2013-04-18 16:12:00,79.6,72.3,30.01,ENE,60,0.0,3.0,78,0.00,,,0.00,WUHU216DAVISVP2,2013-04-18 20:12:00,
2013-04-18 16:17:00,79.3,71.6,30.01,ENE,70,0.0,3.0,77,0.00,,,0.00,WUHU216DAVISVP2,2013-04-18 20:17:00,
2013-04-18 16:22:00,79.2,71.9,30.01,ESE,103,0.0,3.0,78,0.00,,,0.00,WUHU216DAVISVP2,2013-04-18 20:22:00,
2013-04-18 16:27:00,79.6,72.3,30.01,NNE,30,0.0,2.0,78,0.00,,,0.00,WUHU216DAVISVP2,2013-04-18 20:27:00,
2013-04-18 16:32:00,80.1,72.4,30.01,NE,43,2.0,4.0,77,0.00,,,0.00,WUHU216DAVISVP2,2013-04-18 20:32:00,
2013-04-18 16:37:00,80.2,72.5,30.01,ENE,61,0.0,4.0,77,0.00,,,0.00,WUHU216DAVISVP2,2013-04-18 20:37:00,
2013-04-18 16:42:00,80.4,72.7,30.01,SW,227,0.0,3.0,77,0.00,,,0.00,WUHU216DAVISVP2,2013-04-18 20:42:00,
2013-04-18 16:47:00,80.3,71.8,30.01,NE,37,0.0,5.0,75,0.00,,,0.00,WUHU216DAVISVP2,2013-04-18 20:47:00,
2013-04-18 16:52:00,80.4,71.9,30.01,ENE,61,0.0,5.0,75,0.00,,,0.00,WUHU216DAVISVP2,2013-04-18 20:52:00,
2013-04-18 16:57:00,79.9,71.8,30.00,NNE,28,0.0,5.0,76,0.00,,,0.00,WUHU216DAVISVP2,2013-04-18 20:57:00,
2013-04-18 17:02:00,79.4,71.7,30.00,SSE,168,0.0,5.0,77,0.00,,,0.00,WUHU216DAVISVP2,2013-04-18 21:02:00,
2013-04-18 17:07:00,79.3,71.6,30.00,East,92,0.0,3.0,77,0.00,,,0.00,WUHU216DAVISVP2,2013-04-18 21:07:00,
2013-04-18 17:12:00,78.7,70.7,30.00,East,90,0.0,3.0,76,0.00,,,0.00,WUHU216DAVISVP2,2013-04-18 21:12:00,
2013-04-18 17:17:00,78.4,71.1,30.00,ENE,77,0.0,3.0,78,0.00,,,0.00,WUHU216DAVISVP2,2013-04-18 21:17:00,
2013-04-18 17:22:00,78.7,71.4,30.00,ENE,57,1.0,2.0,78,0.00,,,0.00,WUHU216DAVISVP2,2013-04-18 21:22:00,
2013-04-18 17:27:00,78.8,71.9,30.00,SW,236,0.0,4.0,79,0.00,,,0.00,WUHU216DAVISVP2,2013-04-18 21:27:00,
2013-04-18 17:32:00,78.9,71.6,30.00,WNW,288,0.0,4.0,78,0.00,,,0.00,WUHU216DAVISVP2,2013-04-18 21:32:00,
2013-04-18 17:37:00,78.9,71.6,30.00,WSW,244,0.0,1.0,78,0.00,,,0.00,WUHU216DAVISVP2,2013-04-18 21:37:00,
2013-04-18 17:42:00,78.6,70.9,30.00,East,80,1.0,3.0,77,0.00,,,0.00,WUHU216DAVISVP2,2013-04-18 21:42:00,
2013-04-18 17:47:00,77.9,71.0,30.00,ENE,65,0.0,3.0,79,0.00,,,0.00,WUHU216DAVISVP2,2013-04-18 21:47:00,
2013-04-18 17:52:00,77.7,70.8,30.00,ENE,67,0.0,3.0,79,0.00,,,0.00,WUHU216DAVISVP2,2013-04-18 21:52:00,
2013-04-18 17:57:00,77.6,71.0,30.00,East,90,2.0,3.0,80,0.00,,,0.00,WUHU216DAVISVP2,2013-04-18 21:57:00,
2013-04-18 18:02:00,77.3,71.1,29.99,East,100,0.0,3.0,81,0.00,,,0.00,WUHU216DAVISVP2,2013-04-18 22:02:00,
2013-04-18 18:07:00,77.2,71.4,30.00,ENE,78,0.0,3.0,82,0.00,,,0.00,WUHU216DAVISVP2,2013-04-18 22:07:00,
2013-04-18 18:12:00,77.0,71.2,29.99,East,80,0.0,3.0,82,0.00,,,0.00,WUHU216DAVISVP2,2013-04-18 22:12:00,
2013-04-18 18:17:00,76.8,71.0,29.99,ENE,69,0.0,2.0,82,0.00,,,0.00,WUHU216DAVISVP2,2013-04-18 22:17:00,
2013-04-18 18:22:00,76.5,71.0,29.99,ENE,69,0.0,1.0,83,0.00,,,0.00,WUHU216DAVISVP2,2013-04-18 22:22:00,
2013-04-18 18:27:00,76.1,71.0,29.99,SE,136,0.0,2.0,84,0.00,,,0.00,WUHU216DAVISVP2,2013-04-18 22:27:00,
2013-04-18 18:32:00,75.9,71.1,29.99,SE,136,0.0,2.0,85,0.00,,,0.00,WUHU216DAVISVP2,2013-04-18 22:32:00,
2013-04-18 18:37:00,75.6,71.1,29.98,SE,134,0.0,1.0,86,0.00,,,0.00,WUHU216DAVISVP2,2013-04-18 22:37:00,
2013-04-18 18:42:00,75.4,71.3,29.98,ESE,118,0.0,1.0,87,0.00,,,0.00,WUHU216DAVISVP2,2013-04-18 22:42:00,
2013-04-18 18:47:00,75.2,71.1,29.99,East,82,0.0,1.0,87,0.00,,,0.00,WUHU216DAVISVP2,2013-04-18 22:47:00,
2013-04-18 18:52:00,75.0,71.2,29.99,NNW,333,0.0,3.0,88,0.00,,,0.00,WUHU216DAVISVP2,2013-04-18 22:52:00,
2013-04-18 18:57:00,74.8,71.0,29.99,NNE,29,0.0,3.0,88,0.00,,,0.00,WUHU216DAVISVP2,2013-04-18 22:57:00,
2013-04-18 19:02:00,74.7,70.9,29.99,NNE,30,0.0,1.0,88,0.00,,,0.00,WUHU216DAVISVP2,2013-04-18 23:02:00,
2013-04-18 19:07:00,74.6,70.8,29.99,NNE,30,0.0,1.0,88,0.00,,,0.00,WUHU216DAVISVP2,2013-04-18 23:07:00,
2013-04-18 19:12:00,74.5,70.7,29.99,NNE,30,0.0,1.0,88,0.00,,,0.00,WUHU216DAVISVP2,2013-04-18 23:12:00,
2013-04-18 19:17:00,74.5,70.7,29.99,NNE,30,0.0,2.0,88,0.00,,,0.00,WUHU216DAVISVP2,2013-04-18 23:17:00,
2013-04-18 19:22:00,74.4,70.6,29.99,NNE,30,0.0,2.0,88,0.00,,,0.00,WUHU216DAVISVP2,2013-04-18 23:22:00,
2013-04-18 19:27:00,74.4,70.6,29.99,WNW,292,0.0,1.0,88,0.00,,,0.00,WUHU216DAVISVP2,2013-04-18 23:27:00,
2013-04-18 19:32:00,74.4,70.6,29.99,WNW,292,0.0,1.0,88,0.00,,,0.00,WUHU216DAVISVP2,2013-04-18 23:32:00,
2013-04-18 19:37:00,74.4,70.6,29.99,ENE,63,0.0,1.0,88,0.00,,,0.00,WUHU216DAVISVP2,2013-04-18 23:37:00,
2013-04-18 19:42:00,74.3,70.8,29.99,ENE,63,0.0,1.0,89,0.00,,,0.00,WUHU216DAVISVP2,2013-04-18 23:42:00,
2013-04-18 19:48:00,74.3,70.8,29.99,ENE,63,0.0,0.0,89,0.00,,,0.00,WUHU216DAVISVP2,2013-04-18 23:48:00,
2013-04-18 19:53:00,74.2,70.7,30.00,ENE,63,0.0,1.0,89,0.00,,,0.00,WUHU216DAVISVP2,2013-04-18 23:53:00,
2013-04-18 19:58:00,74.0,70.9,30.00,ENE,63,0.0,1.0,90,0.00,,,0.00,WUHU216DAVISVP2,2013-04-18 23:58:00,
2013-04-18 20:03:00,73.9,70.8,30.00,ENE,63,0.0,1.0,90,0.00,,,0.00,WUHU216DAVISVP2,2013-04-19 00:03:00,
2013-04-18 20:08:00,73.8,70.7,30.00,ENE,63,0.0,1.0,90,0.00,,,0.00,WUHU216DAVISVP2,2013-04-19 00:08:00,
2013-04-18 20:13:00,73.8,71.0,30.00,ENE,64,0.0,0.0,91,0.00,,,0.00,WUHU216DAVISVP2,2013-04-19 00:13:00,
2013-04-18 20:18:00,73.9,71.1,30.00,ENE,63,0.0,0.0,91,0.00,,,0.00,WUHU216DAVISVP2,2013-04-19 00:18:00,
2013-04-18 20:23:00,73.9,71.1,30.00,ENE,63,0.0,0.0,91,0.00,,,0.00,WUHU216DAVISVP2,2013-04-19 00:23:00,
2013-04-18 20:28:00,73.9,71.1,30.00,ENE,63,0.0,1.0,91,0.00,,,0.00,WUHU216DAVISVP2,2013-04-19 00:28:00,
2013-04-18 20:33:00,73.8,70.7,30.00,ENE,63,0.0,1.0,90,0.00,,,0.00,WUHU216DAVISVP2,2013-04-19 00:33:00,
2013-04-18 20:38:00,73.6,70.8,30.00,ENE,63,0.0,1.0,91,0.00,,,0.00,WUHU216DAVISVP2,2013-04-19 00:38:00,
2013-04-18 20:43:00,73.5,70.7,30.00,ENE,63,0.0,1.0,91,0.00,,,0.00,WUHU216DAVISVP2,2013-04-19 00:43:00,
2013-04-18 20:48:00,73.3,70.5,30.01,ENE,63,0.0,0.0,91,0.00,,,0.00,WUHU216DAVISVP2,2013-04-19 00:48:00,
2013-04-18 20:53:00,73.3,70.5,30.01,ENE,63,0.0,0.0,91,0.00,,,0.00,WUHU216DAVISVP2,2013-04-19 00:53:00,
2013-04-18 20:58:00,73.1,70.6,30.01,ENE,63,0.0,1.0,92,0.00,,,0.00,WUHU216DAVISVP2,2013-04-19 00:58:00,
2013-04-18 21:03:00,73.0,70.5,30.01,ENE,64,0.0,1.0,92,0.00,,,0.00,WUHU216DAVISVP2,2013-04-19 01:03:00,
2013-04-18 21:08:00,72.9,70.4,30.02,ENE,64,0.0,1.0,92,0.00,,,0.00,WUHU216DAVISVP2,2013-04-19 01:08:00,
2013-04-18 21:13:00,72.8,70.3,30.01,ENE,64,0.0,1.0,92,0.00,,,0.00,WUHU216DAVISVP2,2013-04-19 01:13:00,
2013-04-18 21:18:00,72.7,70.5,30.01,ENE,64,0.0,1.0,93,0.00,,,0.00,WUHU216DAVISVP2,2013-04-19 01:18:00,
2013-04-18 21:23:00,72.6,70.4,30.01,ENE,64,0.0,1.0,93,0.00,,,0.00,WUHU216DAVISVP2,2013-04-19 01:23:00,
2013-04-18 21:28:00,72.6,70.4,30.01,ENE,64,0.0,2.0,93,0.00,,,0.00,WUHU216DAVISVP2,2013-04-19 01:28:00,
2013-04-18 21:33:00,72.5,70.3,30.01,ENE,64,0.0,2.0,93,0.00,,,0.00,WUHU216DAVISVP2,2013-04-19 01:33:00,
2013-04-18 21:38:00,72.5,70.3,30.01,ENE,64,0.0,1.0,93,0.00,,,0.00,WUHU216DAVISVP2,2013-04-19 01:38:00,
2013-04-18 21:43:00,72.4,70.2,30.02,ENE,64,0.0,1.0,93,0.00,,,0.00,WUHU216DAVISVP2,2013-04-19 01:43:00,
2013-04-18 21:48:00,72.4,70.2,30.02,ENE,64,0.0,1.0,93,0.00,,,0.00,WUHU216DAVISVP2,2013-04-19 01:48:00,
2013-04-18 21:53:00,72.4,70.2,30.02,East,82,0.0,2.0,93,0.00,,,0.00,WUHU216DAVISVP2,2013-04-19 01:53:00,
2013-04-18 21:58:00,72.5,70.3,30.02,East,82,0.0,2.0,93,0.00,,,0.00,WUHU216DAVISVP2,2013-04-19 01:58:00,
2013-04-18 22:03:00,72.5,70.3,30.02,East,82,0.0,1.0,93,0.00,,,0.00,WUHU216DAVISVP2,2013-04-19 02:03:00,
2013-04-18 22:08:00,72.5,70.3,30.02,East,82,0.0,1.0,93,0.00,,,0.00,WUHU216DAVISVP2,2013-04-19 02:08:00,
2013-04-18 22:13:00,72.5,70.3,30.02,East,82,0.0,2.0,93,0.00,,,0.00,WUHU216DAVISVP2,2013-04-19 02:13:00,
2013-04-18 22:18:00,72.4,70.2,30.02,East,82,0.0,2.0,93,0.00,,,0.00,WUHU216DAVISVP2,2013-04-19 02:18:00,
2013-04-18 22:23:00,72.4,70.5,30.03,East,82,0.0,2.0,94,0.00,,,0.00,WUHU216DAVISVP2,2013-04-19 02:23:00,
2013-04-18 22:28:00,72.3,70.4,30.02,East,82,0.0,2.0,94,0.00,,,0.00,WUHU216DAVISVP2,2013-04-19 02:28:00,
2013-04-18 22:33:00,72.4,70.5,30.02,East,82,0.0,1.0,94,0.00,,,0.00,WUHU216DAVISVP2,2013-04-19 02:33:00,
2013-04-18 22:38:00,72.3,70.4,30.02,East,82,0.0,1.0,94,0.00,,,0.00,WUHU216DAVISVP2,2013-04-19 02:38:00,
2013-04-18 22:43:00,72.3,70.4,30.02,East,82,0.0,1.0,94,0.00,,,0.00,WUHU216DAVISVP2,2013-04-19 02:43:00,
2013-04-18 22:48:00,72.3,70.4,30.02,East,82,0.0,1.0,94,0.00,,,0.00,WUHU216DAVISVP2,2013-04-19 02:48:00,
2013-04-18 22:53:00,72.3,70.4,30.02,East,82,0.0,1.0,94,0.00,,,0.00,WUHU216DAVISVP2,2013-04-19 02:53:00,
2013-04-18 22:58:00,72.4,70.5,30.02,East,88,0.0,1.0,94,0.00,,,0.00,WUHU216DAVISVP2,2013-04-19 02:58:00,
2013-04-18 23:03:00,72.5,70.6,30.02,East,88,0.0,1.0,94,0.00,,,0.00,WUHU216DAVISVP2,2013-04-19 03:03:00,
2013-04-18 23:08:00,72.5,70.6,30.02,East,88,1.0,1.0,94,0.00,,,0.00,WUHU216DAVISVP2,2013-04-19 03:08:00,
2013-04-18 23:13:00,72.6,70.7,30.02,NE,49,0.0,1.0,94,0.00,,,0.00,WUHU216DAVISVP2,2013-04-19 03:13:00,
2013-04-18 23:18:00,72.6,70.7,30.02,NE,49,0.0,1.0,94,0.00,,,0.00,WUHU216DAVISVP2,2013-04-19 03:18:00,
2013-04-18 23:23:00,72.6,70.7,30.02,NE,49,0.0,1.0,94,0.00,,,0.00,WUHU216DAVISVP2,2013-04-19 03:23:00,
2013-04-18 23:28:00,72.7,70.8,30.02,NE,49,0.0,1.0,94,0.00,,,0.00,WUHU216DAVISVP2,2013-04-19 03:28:00,
2013-04-18 23:33:00,72.6,70.7,30.02,NE,49,0.0,1.0,94,0.00,,,0.00,WUHU216DAVISVP2,2013-04-19 03:33:00,
2013-04-18 23:38:00,72.6,71.1,30.02,NE,49,0.0,1.0,95,0.00,,,0.00,WUHU216DAVISVP2,2013-04-19 03:38:00,
2013-04-18 23:43:00,72.6,71.1,30.02,NE,49,0.0,1.0,95,0.00,,,0.00,WUHU216DAVISVP2,2013-04-19 03:43:00,
2013-04-18 23:48:00,72.6,71.1,30.02,NE,49,0.0,1.0,95,0.00,,,0.00,WUHU216DAVISVP2,2013-04-19 03:48:00,
2013-04-18 23:53:00,72.6,71.1,30.02,NNE,29,0.0,1.0,95,0.00,,,0.00,WUHU216DAVISVP2,2013-04-19 03:53:00,
2013-04-18 23:58:00,72.6,71.1,30.02,NNE,30,0.0,1.0,95,0.00,,,0.00,WUHU216DAVISVP2,2013-04-19 03:58:00,